Time;durP1;ratioP1;P1;durP2;ratioP2;P2;SDS_P1;SDS_P2;PMS_P1;PMS_P2;Temp;Humidity;BMP_temperature;BMP_pressure;BME280_temperature;BME280_humidity;BME280_pressure;Samples;Min_cycle;Max_cycle;Signal;HPM_P1;HPM_P2
2021/04/09 00:00:17;;;;;;;29.70;15.47;;;6.80;99.90;;;;;;5098561;28;20177;-78
2021/04/09 00:02:43;;;;;;;23.77;16.30;;;6.80;99.90;;;;;;5117298;28;20174;-77
2021/04/09 00:05:11;;;;;;;23.30;16.30;;;6.80;99.90;;;;;;5117222;28;20253;-77
2021/04/09 00:07:37;;;;;;;18.13;14.57;;;6.80;99.90;;;;;;5116794;28;20577;-77
2021/04/09 00:10:08;;;;;;;23.27;15.20;;;6.80;99.90;;;;;;5117115;28;20251;-78
2021/04/09 00:12:34;;;;;;;22.80;14.60;;;6.80;99.90;;;;;;5117022;28;20230;-77
2021/04/09 00:15:00;;;;;;;24.03;15.87;;;6.80;99.90;;;;;;5116673;28;20193;-77
2021/04/09 00:17:26;;;;;;;18.77;14.50;;;6.80;99.90;;;;;;5115676;28;20218;-77
2021/04/09 00:19:51;;;;;;;22.37;14.70;;;6.80;99.90;;;;;;5098587;28;20180;-78
2021/04/09 00:22:17;;;;;;;20.67;14.57;;;6.80;99.90;;;;;;5114937;28;20184;-77
2021/04/09 00:24:43;;;;;;;24.57;15.60;;;6.90;99.90;;;;;;5115434;28;20222;-77
2021/04/09 00:27:08;;;;;;;29.70;15.07;;;6.80;99.90;;;;;;5117083;28;20222;-77
2021/04/09 00:29:34;;;;;;;20.67;14.53;;;6.80;99.90;;;;;;5116875;28;20200;-77
2021/04/09 00:31:59;;;;;;;18.87;14.03;;;6.90;99.90;;;;;;5127224;27;20596;-77
2021/04/09 00:34:25;;;;;;;20.17;14.52;;;6.80;99.90;;;;;;5135923;27;20168;-77
2021/04/09 00:36:51;;;;;;;20.42;14.20;;;6.80;99.90;;;;;;5118640;27;20204;-77
2021/04/09 00:39:16;;;;;;;20.60;14.30;;;6.80;99.90;;;;;;5121162;27;20188;-77
2021/04/09 00:41:42;;;;;;;19.30;14.68;;;6.80;99.90;;;;;;5114989;28;20204;-77
2021/04/09 00:44:09;;;;;;;19.00;14.23;;;6.80;99.90;;;;;;5116493;28;20629;-77
2021/04/09 00:46:35;;;;;;;27.15;14.35;;;6.70;99.90;;;;;;5115143;28;20181;-77
2021/04/09 00:49:02;;;;;;;19.90;13.82;;;6.70;99.90;;;;;;5116272;28;20244;-77
2021/04/09 00:51:28;;;;;;;20.55;14.07;;;6.80;99.90;;;;;;5114668;28;20193;-78
2021/04/09 00:53:55;;;;;;;25.83;14.83;;;6.70;99.90;;;;;;5116325;28;20165;-77
2021/04/09 00:56:24;;;;;;;21.80;14.70;;;6.70;99.90;;;;;;5114621;28;20256;-77
2021/04/09 00:58:50;;;;;;;23.77;15.03;;;6.70;99.90;;;;;;5114785;28;20180;-77
2021/04/09 01:01:15;;;;;;;19.40;13.87;;;6.70;99.90;;;;;;5094389;28;20174;-77
2021/04/09 01:03:41;;;;;;;19.63;14.27;;;6.70;99.90;;;;;;5093853;28;20208;-78
2021/04/09 01:06:07;;;;;;;23.60;13.97;;;6.70;99.90;;;;;;5095685;28;20174;-78
2021/04/09 01:08:36;;;;;;;19.73;12.90;;;6.70;99.90;;;;;;5095817;28;20178;-78
2021/04/09 01:11:01;;;;;;;19.92;13.23;;;6.70;99.90;;;;;;5110878;28;20170;-77
2021/04/09 01:13:27;;;;;;;19.77;14.13;;;6.70;99.90;;;;;;5114667;28;20161;-77
2021/04/09 01:15:53;;;;;;;17.20;13.80;;;6.70;99.90;;;;;;5097560;28;20654;-77
2021/04/09 01:18:41;;;;;;;22.10;13.47;;;6.70;99.90;;;;;;5116007;28;20180;-77
2021/04/09 01:21:18;;;;;;;20.67;14.27;;;6.70;99.90;;;;;;5112483;28;20158;-77
2021/04/09 01:23:52;;;;;;;26.07;12.70;;;6.50;99.90;;;;;;5115835;28;20150;-77
2021/04/09 01:26:36;;;;;;;19.97;13.27;;;6.40;99.90;;;;;;5115435;28;20609;-78
2021/04/09 01:29:30;;;;;;;19.13;12.13;;;6.40;99.90;;;;;;5114316;28;20218;-77
2021/04/09 01:32:10;;;;;;;18.63;13.97;;;6.20;99.90;;;;;;5113631;28;20197;-78
2021/04/09 01:34:40;;;;;;;22.13;13.73;;;6.10;99.90;;;;;;5115145;28;20533;-77
2021/04/09 01:37:14;;;;;;;16.03;12.97;;;6.00;99.90;;;;;;5113643;28;20173;-78
2021/04/09 01:39:55;;;;;;;14.40;12.60;;;5.90;99.90;;;;;;5114853;28;20252;-77
2021/04/09 01:42:23;;;;;;;17.37;12.93;;;5.80;99.90;;;;;;5115308;28;20157;-77
2021/04/09 01:44:51;;;;;;;25.80;13.37;;;5.70;99.90;;;;;;5114911;28;20248;-77
2021/04/09 01:47:19;;;;;;;19.03;13.57;;;5.70;99.90;;;;;;5113688;28;20165;-77
2021/04/09 01:49:46;;;;;;;19.53;13.20;;;5.70;99.90;;;;;;5115240;28;20222;-77
2021/04/09 01:52:12;;;;;;;17.37;13.70;;;5.70;99.90;;;;;;5113835;28;20264;-77
2021/04/09 01:54:40;;;;;;;20.17;13.20;;;5.70;99.90;;;;;;5113547;28;20215;-77
2021/04/09 01:57:10;;;;;;;21.17;13.83;;;5.80;99.90;;;;;;5114945;28;20190;-77
2021/04/09 01:59:38;;;;;;;20.17;12.83;;;5.80;99.90;;;;;;5114485;28;20177;-77
2021/04/09 02:02:05;;;;;;;20.93;14.10;;;5.90;99.90;;;;;;5114806;28;20174;-77
2021/04/09 02:04:32;;;;;;;27.13;13.67;;;5.90;99.90;;;;;;5114600;28;20566;-78
2021/04/09 02:06:59;;;;;;;22.60;13.67;;;5.90;99.90;;;;;;5114442;28;20219;-77
2021/04/09 02:09:25;;;;;;;22.93;13.33;;;6.00;99.90;;;;;;5113375;28;20181;-78
2021/04/09 02:11:51;;;;;;;25.80;13.10;;;5.90;99.90;;;;;;5096342;28;20177;-77
2021/04/09 02:14:18;;;;;;;21.07;13.27;;;6.00;99.90;;;;;;5113365;28;20196;-77
2021/04/09 02:16:45;;;;;;;19.27;12.83;;;6.10;99.90;;;;;;5113910;28;20276;-78
2021/04/09 02:19:11;;;;;;;20.10;13.57;;;6.00;99.90;;;;;;5113430;28;20620;-77
2021/04/09 02:21:38;;;;;;;20.27;12.80;;;6.10;99.90;;;;;;5113388;28;20172;-77
2021/04/09 02:24:05;;;;;;;16.70;12.70;;;6.20;99.90;;;;;;5114895;28;20183;-77
2021/04/09 02:26:31;;;;;;;20.47;12.27;;;6.20;99.90;;;;;;5113695;28;20534;-77
2021/04/09 02:28:58;;;;;;;22.93;13.40;;;6.20;99.90;;;;;;5114423;28;20170;-78
2021/04/09 02:31:24;;;;;;;23.83;12.83;;;6.10;99.90;;;;;;5114466;28;20172;-77
2021/04/09 02:33:50;;;;;;;15.70;11.80;;;6.10;99.90;;;;;;5112956;28;20272;-77
2021/04/09 02:36:21;;;;;;;20.83;13.13;;;6.10;99.90;;;;;;5112639;28;20197;-77
2021/04/09 02:38:59;;;;;;;16.97;12.60;;;6.00;99.90;;;;;;5113201;28;20197;-77
2021/04/09 02:41:34;;;;;;;27.00;13.33;;;6.10;99.90;;;;;;5147048;27;20165;-78
2021/04/09 02:44:01;;;;;;;22.67;13.27;;;6.20;99.90;;;;;;5113007;28;20161;-77
2021/04/09 02:46:39;;;;;;;24.60;13.50;;;6.30;99.90;;;;;;5113737;28;20216;-77
2021/04/09 02:49:25;;;;;;;29.70;13.07;;;6.20;99.90;;;;;;5113036;28;20157;-77
2021/04/09 02:51:52;;;;;;;18.20;12.63;;;6.20;99.90;;;;;;5114239;28;20153;-77
2021/04/09 02:54:20;;;;;;;25.27;13.67;;;6.20;99.90;;;;;;5111924;28;20183;-77
2021/04/09 02:56:47;;;;;;;18.63;12.57;;;6.30;99.90;;;;;;5113727;28;20204;-78
2021/04/09 02:59:14;;;;;;;21.70;12.90;;;6.20;99.90;;;;;;5113774;28;20165;-77
2021/04/09 03:01:42;;;;;;;18.10;13.20;;;6.20;99.90;;;;;;5113725;28;20166;-77
2021/04/09 03:04:09;;;;;;;17.57;13.07;;;6.20;99.90;;;;;;5113842;28;20218;-77
2021/04/09 03:06:36;;;;;;;23.97;12.63;;;6.20;99.90;;;;;;5095597;28;20173;-77
2021/04/09 03:09:04;;;;;;;20.93;12.57;;;6.20;99.90;;;;;;5113484;28;20180;-78
2021/04/09 03:11:29;;;;;;;22.67;13.20;;;6.10;99.90;;;;;;5113442;28;20173;-77
2021/04/09 03:13:55;;;;;;;24.20;13.10;;;6.10;99.90;;;;;;5113749;28;20864;-77
2021/04/09 03:16:22;;;;;;;18.90;13.33;;;6.00;99.90;;;;;;5112290;28;20681;-77
2021/04/09 03:18:48;;;;;;;24.90;12.10;;;6.00;99.90;;;;;;5113923;28;20553;-77
2021/04/09 03:21:14;;;;;;;18.90;12.20;;;5.90;99.90;;;;;;5113952;28;20218;-77
2021/04/09 03:23:39;;;;;;;23.97;12.73;;;5.90;99.90;;;;;;5112667;28;20256;-77
2021/04/09 03:26:06;;;;;;;24.43;12.53;;;5.80;99.90;;;;;;5113559;28;20260;-77
2021/04/09 03:28:31;;;;;;;20.80;12.90;;;5.80;99.90;;;;;;5112552;28;20173;-77
2021/04/09 03:30:57;;;;;;;19.87;12.57;;;5.80;99.90;;;;;;5112518;28;20688;-77
2021/04/09 03:33:24;;;;;;;17.90;11.77;;;5.80;99.90;;;;;;5112294;28;20626;-77
2021/04/09 03:35:50;;;;;;;19.30;11.80;;;5.80;99.90;;;;;;5112332;28;20292;-77
2021/04/09 03:38:17;;;;;;;22.57;12.77;;;5.80;99.90;;;;;;5112063;28;20217;-77
2021/04/09 03:40:43;;;;;;;16.10;11.40;;;5.90;99.90;;;;;;5112103;28;20256;-77
2021/04/09 03:43:13;;;;;;;15.23;10.73;;;5.90;99.90;;;;;;5112162;28;20197;-77
2021/04/09 03:45:40;;;;;;;28.77;11.80;;;5.90;99.90;;;;;;5113680;28;20673;-77
2021/04/09 03:48:06;;;;;;;17.87;10.57;;;5.90;99.90;;;;;;5131022;28;20211;-77
2021/04/09 03:50:32;;;;;;;16.10;10.90;;;6.00;99.90;;;;;;5132678;28;20165;-77
2021/04/09 03:52:58;;;;;;;16.63;12.17;;;6.00;99.90;;;;;;5134133;28;20172;-77
2021/04/09 03:55:24;;;;;;;17.17;11.10;;;6.00;99.90;;;;;;5124644;27;20221;-77
2021/04/09 03:57:49;;;;;;;17.10;11.07;;;6.00;99.90;;;;;;5113373;28;20212;-77
2021/04/09 04:00:16;;;;;;;15.07;11.37;;;5.90;99.90;;;;;;5112292;28;20177;-77
2021/04/09 04:02:42;;;;;;;14.57;11.77;;;5.90;99.90;;;;;;5113909;28;20658;-77
2021/04/09 04:05:08;;;;;;;16.60;10.73;;;5.90;99.90;;;;;;5113095;28;20260;-77
2021/04/09 04:07:35;;;;;;;19.13;12.23;;;5.90;99.90;;;;;;5117174;28;20173;-77
2021/04/09 04:10:01;;;;;;;22.20;12.27;;;5.90;99.90;;;;;;5116885;28;20169;-78
2021/04/09 04:12:26;;;;;;;23.50;11.00;;;5.90;99.90;;;;;;5115854;28;20203;-77
2021/04/09 04:14:52;;;;;;;21.87;11.23;;;5.90;99.90;;;;;;5116904;28;20220;-77
2021/04/09 04:17:19;;;;;;;18.37;11.60;;;5.90;99.90;;;;;;5116550;28;20183;-77
2021/04/09 04:19:45;;;;;;;15.87;10.50;;;6.00;99.90;;;;;;5116865;28;20176;-77
2021/04/09 04:22:10;;;;;;;14.63;12.03;;;6.00;99.90;;;;;;5116901;28;20169;-77
2021/04/09 04:24:36;;;;;;;19.10;11.47;;;5.90;99.90;;;;;;5116862;28;20613;-78
2021/04/09 04:27:02;;;;;;;20.80;11.43;;;6.00;99.90;;;;;;5095046;28;20527;-77
2021/04/09 04:29:27;;;;;;;19.93;11.17;;;5.90;99.90;;;;;;5112098;28;20198;-77
2021/04/09 04:31:53;;;;;;;19.87;12.07;;;5.90;99.90;;;;;;5096007;28;20312;-77
2021/04/09 04:34:18;;;;;;;16.80;12.00;;;5.90;99.90;;;;;;5112180;28;20202;-77
2021/04/09 04:36:44;;;;;;;16.03;10.87;;;5.90;99.90;;;;;;5114942;28;20199;-77
2021/04/09 04:39:10;;;;;;;22.53;12.10;;;5.90;99.90;;;;;;5115097;28;20264;-77
2021/04/09 04:41:36;;;;;;;23.17;12.17;;;5.90;99.90;;;;;;5115140;28;20177;-77
2021/04/09 04:44:01;;;;;;;24.60;12.73;;;5.90;99.90;;;;;;5115242;28;20169;-77
2021/04/09 04:46:27;;;;;;;18.57;11.80;;;6.00;99.90;;;;;;5116201;28;20177;-78
2021/04/09 04:48:52;;;;;;;18.97;12.53;;;6.00;99.90;;;;;;5115273;28;20173;-77
2021/04/09 04:51:18;;;;;;;25.70;13.13;;;5.90;99.90;;;;;;5115101;28;20173;-77
2021/04/09 04:53:44;;;;;;;18.60;11.87;;;5.90;99.90;;;;;;5116044;28;20162;-77
2021/04/09 04:56:10;;;;;;;20.20;12.33;;;5.90;99.90;;;;;;5115279;28;20674;-78
2021/04/09 04:58:35;;;;;;;26.87;13.20;;;5.90;99.90;;;;;;5115077;28;20690;-77
2021/04/09 05:01:01;;;;;;;21.80;13.50;;;5.90;99.90;;;;;;5116499;28;20161;-78
2021/04/09 05:03:26;;;;;;;22.53;12.03;;;5.90;99.90;;;;;;5114490;28;20180;-78
2021/04/09 05:05:52;;;;;;;23.63;12.30;;;5.90;99.90;;;;;;5097574;28;20169;-78
2021/04/09 05:08:18;;;;;;;25.23;13.43;;;5.90;99.90;;;;;;5115733;28;20617;-77
2021/04/09 05:10:43;;;;;;;28.70;13.63;;;5.90;99.90;;;;;;5115784;28;20181;-77
2021/04/09 05:13:09;;;;;;;30.77;13.83;;;6.00;99.90;;;;;;5115745;28;20210;-77
2021/04/09 05:15:34;;;;;;;30.80;13.93;;;6.00;99.90;;;;;;5114556;28;20197;-77
2021/04/09 05:18:00;;;;;;;28.93;13.70;;;6.00;99.90;;;;;;5114536;28;20177;-77
2021/04/09 05:20:26;;;;;;;24.70;14.20;;;6.10;99.90;;;;;;5114493;28;20173;-77
2021/04/09 05:22:51;;;;;;;23.67;13.73;;;6.20;99.90;;;;;;5115976;28;20525;-77
2021/04/09 05:25:17;;;;;;;24.10;12.83;;;6.20;99.90;;;;;;5114216;28;20177;-77
2021/04/09 05:27:43;;;;;;;33.10;12.73;;;6.40;99.90;;;;;;5113945;28;20174;-77
2021/04/09 05:30:09;;;;;;;22.90;13.70;;;6.40;99.90;;;;;;5097432;28;20185;-77
2021/04/09 05:32:34;;;;;;;22.37;12.97;;;6.40;99.90;;;;;;5115336;28;20185;-77
2021/04/09 05:35:00;;;;;;;21.97;13.63;;;6.50;99.90;;;;;;5114158;28;20208;-77
2021/04/09 05:37:26;;;;;;;30.63;13.70;;;6.60;99.90;;;;;;5114021;28;20634;-77
2021/04/09 05:39:51;;;;;;;26.17;13.53;;;6.70;99.90;;;;;;5115632;28;20584;-77
2021/04/09 05:42:17;;;;;;;23.97;13.50;;;6.80;99.90;;;;;;5114003;28;20616;-77
2021/04/09 05:44:43;;;;;;;26.37;14.57;;;6.90;99.90;;;;;;5115291;28;20502;-77
2021/04/09 05:47:09;;;;;;;21.10;13.50;;;7.00;99.90;;;;;;5113811;28;20532;-77
2021/04/09 05:49:35;;;;;;;24.00;14.67;;;7.10;99.90;;;;;;5113951;28;20162;-77
2021/04/09 05:52:06;;;;;;;22.43;13.80;;;7.30;99.90;;;;;;5113533;28;20192;-77
2021/04/09 05:54:35;;;;;;;29.77;14.60;;;7.50;99.90;;;;;;5113535;28;20169;-77
2021/04/09 05:57:01;;;;;;;26.77;14.53;;;7.60;99.90;;;;;;5114814;28;20314;-77
2021/04/09 05:59:27;;;;;;;28.30;14.98;;;7.80;99.90;;;;;;5113837;28;20221;-77
2021/04/09 06:01:53;;;;;;;31.20;15.82;;;8.10;99.90;;;;;;5114614;28;20614;-77
2021/04/09 06:04:19;;;;;;;32.85;16.33;;;8.30;99.90;;;;;;5114836;28;20298;-77
2021/04/09 06:06:44;;;;;;;35.50;17.35;;;8.40;99.90;;;;;;5114345;28;20213;-77
2021/04/09 06:09:10;;;;;;;38.38;17.50;;;8.50;99.90;;;;;;5114357;28;20177;-76
2021/04/09 06:11:36;;;;;;;38.83;17.58;;;8.50;99.90;;;;;;5114329;28;20196;-77
2021/04/09 06:14:01;;;;;;;29.67;15.80;;;8.70;99.90;;;;;;5109616;28;20180;-76
2021/04/09 06:16:27;;;;;;;32.58;17.77;;;8.80;99.90;;;;;;5095840;28;20293;-76
2021/04/09 06:18:53;;;;;;;49.25;18.75;;;9.00;99.90;;;;;;5113263;28;20173;-76
2021/04/09 06:21:19;;;;;;;31.08;16.63;;;9.10;99.90;;;;;;5114128;28;20162;-77
2021/04/09 06:23:44;;;;;;;25.08;15.75;;;9.30;99.90;;;;;;5114298;28;20549;-77
2021/04/09 06:26:10;;;;;;;31.27;15.82;;;9.40;99.90;;;;;;5114010;28;20181;-76
2021/04/09 06:28:36;;;;;;;25.75;15.73;;;9.60;99.90;;;;;;5113103;28;20174;-76
2021/04/09 06:31:01;;;;;;;27.33;16.35;;;9.60;99.90;;;;;;5112819;28;20176;-76
2021/04/09 06:33:27;;;;;;;30.08;15.48;;;9.70;99.90;;;;;;5113930;28;20185;-75
2021/04/09 06:35:53;;;;;;;33.25;15.85;;;9.90;99.90;;;;;;5113177;28;20197;-77
2021/04/09 06:38:18;;;;;;;30.40;16.10;;;10.10;99.90;;;;;;5112557;28;20178;-76
2021/04/09 06:40:45;;;;;;;33.75;15.40;;;10.10;99.90;;;;;;5113023;28;20498;-76
2021/04/09 06:43:11;;;;;;;27.95;14.18;;;10.20;99.90;;;;;;5114577;27;20162;-76
2021/04/09 06:45:39;;;;;;;32.88;14.57;;;10.30;99.90;;;;;;5114255;28;20165;-77
2021/04/09 06:48:06;;;;;;;33.58;15.48;;;10.50;99.90;;;;;;5096069;28;20207;-77
2021/04/09 06:50:31;;;;;;;25.77;13.88;;;10.70;99.90;;;;;;5114081;28;20170;-76
2021/04/09 06:52:57;;;;;;;30.25;14.52;;;10.90;99.90;;;;;;5112841;28;20175;-77
2021/04/09 06:55:23;;;;;;;27.90;15.13;;;11.10;99.90;;;;;;5113817;28;20197;-76
2021/04/09 06:57:52;;;;;;;45.20;14.70;;;11.40;99.90;;;;;;5112912;27;20625;-77
2021/04/09 07:00:20;;;;;;;20.50;13.57;;;11.60;99.90;;;;;;5114035;28;20172;-79
2021/04/09 07:02:46;;;;;;;24.77;13.60;;;11.60;99.90;;;;;;5112142;28;20204;-77
2021/04/09 07:05:12;;;;;;;19.33;12.75;;;11.60;99.90;;;;;;5114003;28;20192;-76
2021/04/09 07:07:38;;;;;;;18.98;11.88;;;11.60;99.90;;;;;;5113794;28;20644;-76
2021/04/09 07:10:05;;;;;;;27.15;12.20;;;11.50;99.90;;;;;;5112530;28;20176;-76
2021/04/09 07:12:33;;;;;;;18.63;11.00;;;11.40;99.90;;;;;;5112532;28;20180;-76
2021/04/09 07:15:01;;;;;;;17.50;11.48;;;11.40;99.90;;;;;;5113918;28;20193;-77
2021/04/09 07:17:34;;;;;;;27.20;11.32;;;11.40;99.90;;;;;;5112060;28;20208;-76
2021/04/09 07:20:12;;;;;;;22.67;11.43;;;11.60;99.90;;;;;;5113785;28;20523;-77
2021/04/09 07:22:38;;;;;;;21.75;11.35;;;11.90;99.90;;;;;;5110491;28;20185;-77
2021/04/09 07:25:09;;;;;;;26.38;11.93;;;12.40;99.90;;;;;;5100898;28;20177;-78
2021/04/09 07:27:36;;;;;;;29.40;12.32;;;13.00;99.90;;;;;;5113091;28;20526;-77
2021/04/09 07:30:02;;;;;;;30.85;12.93;;;13.70;99.90;;;;;;5113598;28;20181;-77
2021/04/09 07:32:30;;;;;;;21.63;12.65;;;14.00;99.90;;;;;;5113543;28;20220;-78
2021/04/09 07:35:07;;;;;;;30.90;12.65;;;13.80;99.90;;;;;;5112249;28;20172;-77
2021/04/09 07:37:52;;;;;;;28.42;12.73;;;13.80;99.90;;;;;;5113478;28;20244;-77
2021/04/09 07:40:21;;;;;;;17.38;11.32;;;14.00;99.90;;;;;;5113864;28;20524;-77
2021/04/09 07:42:47;;;;;;;21.13;12.13;;;14.80;99.90;;;;;;5117733;28;20601;-77
2021/04/09 07:45:14;;;;;;;23.35;11.40;;;15.40;99.90;;;;;;5115986;28;20172;-78
2021/04/09 07:47:53;;;;;;;17.35;10.38;;;16.00;99.90;;;;;;5117506;28;20221;-77
2021/04/09 07:50:18;;;;;;;16.58;9.98;;;16.30;99.90;;;;;;5117673;28;20158;-77
2021/04/09 07:52:51;;;;;;;16.67;10.45;;;16.80;99.90;;;;;;5117518;28;20178;-77
2021/04/09 07:55:23;;;;;;;20.63;11.10;;;17.80;99.90;;;;;;5117121;28;20253;-77
2021/04/09 07:57:49;;;;;;;14.05;9.48;;;18.90;99.90;;;;;;5116946;28;20205;-77
2021/04/09 08:00:17;;;;;;;11.55;8.20;;;18.50;99.90;;;;;;5117240;28;20241;-77
2021/04/09 08:02:43;;;;;;;12.57;9.13;;;18.00;99.90;;;;;;5115912;28;20174;-76
2021/04/09 08:05:09;;;;;;;13.10;8.50;;;17.20;99.90;;;;;;5116672;28;20534;-76
2021/04/09 08:07:36;;;;;;;15.25;8.38;;;16.50;99.90;;;;;;5117267;28;20257;-77
2021/04/09 08:10:02;;;;;;;12.55;8.25;;;15.60;99.90;;;;;;5115919;28;20166;-77
2021/04/09 08:12:30;;;;;;;10.27;8.52;;;15.00;99.90;;;;;;5115795;28;20169;-76
2021/04/09 08:15:10;;;;;;;21.05;9.25;;;14.30;99.90;;;;;;5115327;28;20176;-76
2021/04/09 08:17:36;;;;;;;13.35;8.68;;;13.70;99.90;;;;;;5115612;28;20182;-77
2021/04/09 08:20:12;;;;;;;14.40;8.40;;;13.40;99.90;;;;;;5117227;28;20173;-76
2021/04/09 08:22:39;;;;;;;14.00;8.60;;;13.50;99.90;;;;;;5116817;28;20191;-77
2021/04/09 08:25:06;;;;;;;9.27;8.27;;;13.60;99.90;;;;;;5115539;28;20174;-77
2021/04/09 08:27:34;;;;;;;10.90;8.27;;;13.60;99.90;;;;;;5098525;28;20170;-76
2021/04/09 08:30:00;;;;;;;10.65;8.13;;;13.40;99.90;;;;;;5117126;28;20227;-76
2021/04/09 08:32:26;;;;;;;19.25;9.02;;;13.50;99.90;;;;;;5116469;28;20270;-77
2021/04/09 08:34:52;;;;;;;16.33;8.95;;;13.60;99.90;;;;;;5116418;28;20205;-77
2021/04/09 08:37:20;;;;;;;9.95;8.48;;;13.70;99.90;;;;;;5116386;28;20645;-77
2021/04/09 08:39:46;;;;;;;12.80;8.07;;;13.60;99.90;;;;;;5116644;28;20165;-77
2021/04/09 08:42:14;;;;;;;9.00;8.10;;;13.40;99.90;;;;;;5116413;28;20165;-77
2021/04/09 08:44:40;;;;;;;12.93;8.90;;;13.30;99.90;;;;;;5116406;28;20162;-77
2021/04/09 08:47:07;;;;;;;11.98;8.48;;;13.10;99.90;;;;;;5115175;28;20533;-77
2021/04/09 08:49:33;;;;;;;9.13;7.75;;;13.40;99.90;;;;;;5116433;28;20168;-77
2021/04/09 08:52:05;;;;;;;11.23;8.23;;;13.40;99.90;;;;;;5113519;28;20174;-77
2021/04/09 08:54:31;;;;;;;15.98;8.57;;;13.70;99.90;;;;;;5111797;28;20230;-78
2021/04/09 08:56:59;;;;;;;10.88;7.07;;;13.90;99.90;;;;;;5113304;28;20330;-78
2021/04/09 08:59:47;;;;;;;9.73;7.57;;;14.30;99.90;;;;;;5115604;28;20205;-77
2021/04/09 09:02:27;;;;;;;13.60;8.30;;;14.80;99.90;;;;;;5115692;28;20169;-77
2021/04/09 09:05:08;;;;;;;13.77;7.95;;;15.10;99.90;;;;;;5115751;28;20193;-78
2021/04/09 09:07:43;;;;;;;13.50;7.50;;;15.50;99.90;;;;;;5114524;28;20585;-79
2021/04/09 09:10:29;;;;;;;11.65;7.57;;;16.00;99.90;;;;;;5115690;28;20165;-77
2021/04/09 09:13:14;;;;;;;12.40;8.30;;;16.40;99.90;;;;;;5114578;28;20255;-78
2021/04/09 09:15:45;;;;;;;14.27;7.32;;;16.80;99.90;;;;;;5115185;28;20221;-77
2021/04/09 09:18:23;;;;;;;11.32;6.93;;;17.40;99.90;;;;;;5115377;28;20258;-77
2021/04/09 09:21:10;;;;;;;7.65;6.30;;;17.60;99.90;;;;;;5115551;28;20240;-78
2021/04/09 09:23:52;;;;;;;12.95;7.32;;;18.20;99.90;;;;;;5115186;28;20184;-80
2021/04/09 09:26:35;;;;;;;7.43;6.47;;;18.70;99.90;;;;;;5113552;28;20621;-78
2021/04/09 09:29:09;;;;;;;9.63;6.05;;;18.70;99.90;;;;;;5113865;28;20165;-78
2021/04/09 09:32:04;;;;;;;8.52;6.00;;;19.30;99.90;;;;;;5115246;28;20169;-78
2021/04/09 09:34:35;;;;;;;14.73;6.53;;;19.90;98.80;;;;;;5112480;28;20177;-77
2021/04/09 09:37:01;;;;;;;8.48;5.72;;;20.60;98.80;;;;;;5114719;28;20185;-77
2021/04/09 09:40:02;;;;;;;11.18;6.45;;;21.50;96.70;;;;;;5113916;28;20621;-79
2021/04/09 09:42:28;;;;;;;10.68;6.13;;;21.30;96.00;;;;;;5114183;28;20167;-77
2021/04/09 09:44:59;;;;;;;10.88;5.38;;;21.30;96.70;;;;;;5113855;28;20173;-78
2021/04/09 09:47:46;;;;;;;13.07;6.25;;;21.40;95.90;;;;;;5114483;28;20209;-77
2021/04/09 09:50:15;;;;;;;6.47;5.65;;;21.50;95.40;;;;;;5114450;28;20178;-77
2021/04/09 09:52:46;;;;;;;7.60;5.25;;;21.40;95.00;;;;;;5115605;28;20162;-77
2021/04/09 09:55:28;;;;;;;8.65;5.97;;;21.10;95.20;;;;;;5115109;28;20197;-77
2021/04/09 09:58:00;;;;;;;7.97;5.80;;;20.20;95.70;;;;;;5115228;28;20193;-77
2021/04/09 10:00:35;;;;;;;8.73;6.00;;;19.70;96.30;;;;;;5113696;28;20200;-76
2021/04/09 10:03:33;;;;;;;10.63;6.10;;;19.80;96.40;;;;;;5113212;28;20177;-77
2021/04/09 10:06:08;;;;;;;13.82;5.35;;;20.10;96.80;;;;;;5112696;28;20181;-77
2021/04/09 10:08:35;;;;;;;5.53;4.82;;;20.90;95.30;;;;;;5113629;28;20604;-77
2021/04/09 10:11:06;;;;;;;9.98;5.45;;;20.90;95.20;;;;;;5114451;28;20175;-76
2021/04/09 10:13:36;;;;;;;5.47;4.75;;;19.80;95.30;;;;;;5114793;28;20160;-77
2021/04/09 10:16:06;;;;;;;5.88;5.32;;;19.00;96.80;;;;;;5113536;28;20278;-77
2021/04/09 10:18:33;;;;;;;8.85;5.15;;;19.10;96.90;;;;;;5114813;28;20197;-77
2021/04/09 10:21:27;;;;;;;8.93;5.85;;;19.30;96.70;;;;;;5114672;28;20644;-77
2021/04/09 10:24:07;;;;;;;6.05;4.70;;;19.20;97.90;;;;;;5112553;28;20177;-76
2021/04/09 10:26:37;;;;;;;6.55;5.53;;;19.10;97.80;;;;;;5114459;28;20253;-77
2021/04/09 10:29:18;;;;;;;7.40;4.57;;;19.20;97.20;;;;;;5113499;28;20189;-76
2021/04/09 10:31:44;;;;;;;6.25;5.10;;;19.10;97.20;;;;;;5114366;28;20606;-77
2021/04/09 10:34:10;;;;;;;5.15;4.68;;;19.40;96.20;;;;;;5114418;28;20161;-77
2021/04/09 10:36:36;;;;;;;5.53;4.35;;;19.50;97.20;;;;;;5108278;28;20221;-77
2021/04/09 10:39:12;;;;;;;9.63;4.60;;;19.50;96.70;;;;;;5112056;28;20177;-76
2021/04/09 10:41:46;;;;;;;5.60;5.10;;;19.40;97.10;;;;;;5112717;28;20254;-76
2021/04/09 10:44:24;;;;;;;5.88;4.60;;;20.10;97.40;;;;;;5110335;28;20207;-77
2021/04/09 10:47:04;;;;;;;5.55;4.53;;;22.10;95.80;;;;;;5093851;28;20182;-76
2021/04/09 10:49:35;;;;;;;8.07;5.07;;;23.70;93.80;;;;;;5092995;28;20181;-76
2021/04/09 10:52:14;;;;;;;7.97;4.85;;;24.30;91.70;;;;;;5110379;28;20165;-74
2021/04/09 10:54:43;;;;;;;5.50;4.28;;;24.90;91.30;;;;;;5108652;28;20173;-74
2021/04/09 10:57:09;;;;;;;5.22;4.47;;;25.60;89.10;;;;;;5093613;28;20204;-74
2021/04/09 10:59:36;;;;;;;10.35;4.78;;;25.70;86.30;;;;;;5097139;28;20178;-75
2021/04/09 11:02:05;;;;;;;4.63;4.22;;;25.20;87.50;;;;;;5066913;28;20190;-75
2021/04/09 11:04:33;;;;;;;7.05;4.68;;;25.30;87.70;;;;;;5071305;28;20202;-74
2021/04/09 11:07:03;;;;;;;9.57;4.75;;;26.10;88.20;;;;;;5051918;28;20529;-75
2021/04/09 11:09:45;;;;;;;6.13;4.35;;;26.70;82.50;;;;;;5082361;28;20174;-74
2021/04/09 11:12:29;;;;;;;5.97;4.00;;;26.90;82.70;;;;;;5074885;28;20181;-75
2021/04/09 11:15:15;;;;;;;6.35;3.63;;;26.80;81.50;;;;;;5077851;28;20172;-75
2021/04/09 11:17:56;;;;;;;6.25;4.82;;;25.90;83.00;;;;;;5086157;28;20190;-75
2021/04/09 11:20:30;;;;;;;7.50;4.78;;;25.70;83.50;;;;;;5092021;28;20170;-77
2021/04/09 11:23:16;;;;;;;5.53;4.00;;;26.90;81.90;;;;;;5097751;28;20185;-74
2021/04/09 11:25:44;;;;;;;8.85;4.50;;;27.00;81.20;;;;;;5079690;28;20174;-75
2021/04/09 11:28:29;;;;;;;10.50;4.95;;;27.30;80.90;;;;;;5096154;28;20235;-77
2021/04/09 11:31:00;;;;;;;10.25;3.95;;;27.20;80.00;;;;;;5079356;28;20642;-75
2021/04/09 11:33:39;;;;;;;5.53;3.70;;;27.50;79.40;;;;;;5111325;28;20193;-75
2021/04/09 11:36:21;;;;;;;10.10;4.40;;;26.90;78.60;;;;;;5118927;28;20185;-75
2021/04/09 11:38:48;;;;;;;5.95;3.88;;;26.30;78.40;;;;;;5117215;28;20169;-76
2021/04/09 11:41:26;;;;;;;6.20;4.05;;;25.80;77.70;;;;;;5118849;28;20165;-75
2021/04/09 11:43:52;;;;;;;6.47;3.70;;;26.40;78.50;;;;;;5117415;28;20165;-75
2021/04/09 11:46:34;;;;;;;4.90;4.15;;;27.50;77.70;;;;;;5084265;28;20193;-75
2021/04/09 11:49:07;;;;;;;4.57;3.80;;;27.30;78.40;;;;;;5117564;28;20681;-75
2021/04/09 11:51:36;;;;;;;7.38;4.30;;;27.30;77.20;;;;;;5116376;28;20602;-76
2021/04/09 11:54:03;;;;;;;9.20;4.35;;;27.20;76.60;;;;;;5116229;28;20157;-76
2021/04/09 11:56:42;;;;;;;6.35;3.75;;;26.30;77.20;;;;;;5116923;28;20673;-75
2021/04/09 11:59:14;;;;;;;4.53;3.83;;;25.40;80.10;;;;;;5115857;28;20234;-75
2021/04/09 12:01:41;;;;;;;7.63;3.83;;;24.40;81.20;;;;;;5117065;28;20218;-75
2021/04/09 12:04:07;;;;;;;5.35;4.18;;;22.90;81.70;;;;;;5117285;28;20192;-76
2021/04/09 12:06:36;;;;;;;7.57;4.60;;;22.10;84.80;;;;;;5117296;28;20201;-75
2021/04/09 12:09:04;;;;;;;9.73;4.57;;;22.70;82.90;;;;;;5117004;28;20689;-76
2021/04/09 12:11:30;;;;;;;10.73;4.70;;;22.50;83.10;;;;;;5116773;28;20170;-75
2021/04/09 12:13:55;;;;;;;7.57;4.65;;;21.50;84.60;;;;;;5115553;28;20177;-75
2021/04/09 12:16:21;;;;;;;6.20;4.22;;;20.90;85.90;;;;;;5116586;28;20196;-75
2021/04/09 12:18:47;;;;;;;6.82;4.22;;;20.90;84.90;;;;;;5115294;28;20217;-74
2021/04/09 12:21:12;;;;;;;8.07;4.93;;;21.30;87.20;;;;;;5116762;28;20204;-76
2021/04/09 12:23:38;;;;;;;10.15;5.38;;;20.60;86.50;;;;;;5081749;28;20177;-75
2021/04/09 12:26:04;;;;;;;5.03;4.50;;;19.70;89.70;;;;;;5115451;28;20250;-75
2021/04/09 12:28:29;;;;;;;6.13;4.95;;;19.70;90.90;;;;;;5116466;28;20165;-75
2021/04/09 12:30:55;;;;;;;6.35;5.25;;;20.40;90.50;;;;;;5115504;28;20173;-75
2021/04/09 12:33:22;;;;;;;5.90;4.97;;;19.90;90.60;;;;;;5117065;28;20208;-75
2021/04/09 12:35:48;;;;;;;6.72;5.53;;;19.30;90.60;;;;;;5111530;28;20270;-75
2021/04/09 12:38:13;;;;;;;11.80;4.90;;;18.90;90.50;;;;;;5116103;28;20185;-77
2021/04/09 12:40:39;;;;;;;6.28;4.65;;;18.70;92.50;;;;;;5116403;28;20169;-75
2021/04/09 12:43:05;;;;;;;12.98;5.60;;;18.70;92.30;;;;;;5114426;28;20204;-76
2021/04/09 12:45:30;;;;;;;8.98;5.95;;;18.60;92.10;;;;;;5116131;28;20188;-76
2021/04/09 12:47:56;;;;;;;9.75;6.00;;;18.40;92.50;;;;;;5116060;28;20645;-75